Terminal Aerodrome Forecast
Issued by NWS Portland, ME

Home | Current Version | Previous Version | Text Only | Print | Product List | Glossary On
Versions: 1 2 3 4 5 6 7 8 9 10 11 12 13 14 15 16 17
486
FTUS41 KGYX 010913 AAA
TAFPWM
TAF AMD
KPWM 010913Z 0109/0206 VRB03KT P6SM BKN200
     FM011500 15007KT P6SM BKN050
     FM012000 17007KT P6SM -SHRA OVC025
     FM020200 15004KT P6SM OVC035=

USA.gov is the U.S. government's official web portal to all federal, state and local government web resources and services.